Belleair Bluffs, Florida
Current Conditions -  °F | °C
As of 6:15 AM on Sunday 21 Dec 2014 (Local Time) from KCLW Reporting Station
Clear Clear  
Wind Chill: 63°   Ceiling: Unl
Heat Index: 63°   Visibility: 10mi
Dew Point: 59°   Wind: 3mph
Humidity: 88%   Direction: 100°E
Pressure: 30.04"   Gusts: NA
Location:  27.9154°N, 82.8023°W
Report Text: KCLW 211115Z AUTO 10003KT 10SM CLR 17/15 A3004 RMK AO2
Loading
Personal Weather Stations






























Interactive Weather Map New forecast layout! Learn more

10-Day Weather Forecast

Advertisements
Track Severe Weather on mobile